Time;durP1;ratioP1;P1;durP2;ratioP2;P2;SDS_P1;SDS_P2;PMS_P1;PMS_P2;Temp;Humidity;BMP_temperature;BMP_pressure;BME280_temperature;BME280_humidity;BME280_pressure;Samples;Min_cycle;Max_cycle;Signal;HPM_P1;HPM_P2
2024/01/04 00:01:19;;;;;;;20.08;7.43;;;;;;;-143.54;100.00;59916.91;5075063;28;20482;-85
2024/01/04 00:03:45;;;;;;;16.65;7.75;;;;;;;-143.54;100.00;59916.91;5070314;28;20020;-85
2024/01/04 00:06:10;;;;;;;21.13;6.80;;;;;;;-143.54;100.00;59916.91;5072805;28;20041;-85
2024/01/04 00:08:35;;;;;;;17.73;6.78;;;;;;;-143.54;100.00;59916.91;5072324;28;20044;-84
2024/01/04 00:11:03;;;;;;;15.02;5.97;;;;;;;-143.54;100.00;59916.91;5081305;28;20099;-84
2024/01/04 00:13:28;;;;;;;19.85;6.35;;;;;;;-143.54;100.00;59916.91;5069930;28;20025;-84
2024/01/04 00:15:53;;;;;;;15.73;6.35;;;;;;;-143.54;100.00;59916.91;5082443;28;20417;-84
2024/01/04 00:18:19;;;;;;;20.80;6.13;;;;;;;-143.54;100.00;59916.91;5073409;28;20500;-84
2024/01/04 00:20:44;;;;;;;18.92;5.95;;;;;;;-143.54;100.00;59916.91;5075372;28;20032;-84
2024/01/04 00:23:09;;;;;;;18.23;5.82;;;;;;;-143.54;100.00;59916.91;5078456;28;20533;-84
2024/01/04 00:25:35;;;;;;;16.00;5.18;;;;;;;-143.54;100.00;59916.91;5072519;28;20119;-83
2024/01/04 00:28:00;;;;;;;13.07;5.78;;;;;;;-143.54;100.00;59916.91;5073618;28;20032;-84
2024/01/04 00:30:26;;;;;;;13.38;5.45;;;;;;;-143.54;100.00;59916.91;5079923;28;21220;-84
2024/01/04 00:32:51;;;;;;;18.52;5.50;;;;;;;-143.54;100.00;59916.91;5078279;28;20020;-85
2024/01/04 00:35:16;;;;;;;15.40;5.22;;;;;;;-143.54;100.00;59916.91;5076963;28;20044;-84
2024/01/04 00:37:42;;;;;;;12.00;5.00;;;;;;;-143.54;100.00;59916.91;5072761;28;20071;-83
2024/01/04 00:40:08;;;;;;;10.52;4.68;;;;;;;-143.54;100.00;59916.91;5073895;28;20028;-85
2024/01/04 00:42:34;;;;;;;15.43;4.60;;;;;;;-143.54;100.00;59916.91;5072727;28;20067;-85
2024/01/04 00:44:59;;;;;;;11.18;4.90;;;;;;;-143.54;100.00;59916.91;5075920;28;20056;-84
2024/01/04 00:47:24;;;;;;;10.48;4.60;;;;;;;-143.54;100.00;59916.91;5072859;28;20051;-84
2024/01/04 00:49:50;;;;;;;14.63;4.90;;;;;;;-143.54;100.00;59916.91;5079023;28;20016;-84
2024/01/04 00:52:15;;;;;;;11.65;4.60;;;;;;;-143.54;100.00;59916.91;5069242;28;20044;-84
2024/01/04 00:54:40;;;;;;;11.18;4.43;;;;;;;-143.54;100.00;59916.91;5072980;28;20140;-84
2024/01/04 00:57:05;;;;;;;13.55;3.85;;;;;;;-143.54;100.00;59916.91;5079163;28;20024;-85
2024/01/04 00:59:31;;;;;;;19.42;4.60;;;;;;;-143.54;100.00;59916.91;5074711;28;20535;-84
2024/01/04 01:01:56;;;;;;;10.60;4.05;;;;;;;-143.54;100.00;59916.91;5077135;28;20035;-84
2024/01/04 01:04:21;;;;;;;18.52;4.43;;;;;;;-143.54;100.00;59916.91;5082504;28;20032;-84
2024/01/04 01:06:46;;;;;;;17.48;4.22;;;;;;;-143.54;100.00;59916.91;5075748;28;20417;-84
2024/01/04 01:09:12;;;;;;;13.65;4.15;;;;;;;-143.54;100.00;59916.91;5073025;28;20059;-84
2024/01/04 01:11:37;;;;;;;14.60;4.15;;;;;;;-143.54;100.00;59916.91;5068939;28;20381;-83
2024/01/04 01:14:03;;;;;;;15.25;5.03;;;;;;;-143.54;100.00;59916.91;5080729;28;20474;-84
2024/01/04 01:16:28;;;;;;;16.77;3.95;;;;;;;-143.54;100.00;59916.91;5078232;28;20063;-84
2024/01/04 01:18:53;;;;;;;16.98;4.85;;;;;;;-143.54;100.00;59916.91;5074603;28;20385;-84
2024/01/04 01:21:19;;;;;;;19.45;5.13;;;;;;;-143.54;100.00;59916.91;5073474;28;20028;-84
2024/01/04 01:23:44;;;;;;;19.52;5.40;;;;;;;-143.54;100.00;59916.91;5071273;28;20128;-84
2024/01/04 01:26:09;;;;;;;13.27;4.60;;;;;;;-143.54;100.00;59916.91;5081075;28;20025;-84
2024/01/04 01:28:34;;;;;;;16.60;4.40;;;;;;;-143.54;100.00;59916.91;5073126;28;20138;-84
2024/01/04 01:31:01;;;;;;;13.95;4.32;;;;;;;-143.54;100.00;59916.91;5079615;28;20038;-85
2024/01/04 01:33:27;;;;;;;17.45;4.90;;;;;;;-143.54;100.00;59916.91;5068918;28;20537;-84
2024/01/04 01:35:52;;;;;;;14.05;4.32;;;;;;;-143.54;100.00;59916.91;5079691;28;20024;-84
2024/01/04 01:38:17;;;;;;;16.50;4.57;;;;;;;-143.54;100.00;59916.91;5071738;28;20021;-84
2024/01/04 01:40:42;;;;;;;16.48;4.43;;;;;;;-143.54;100.00;59916.91;5079305;28;20058;-84
2024/01/04 01:43:08;;;;;;;20.05;4.75;;;;;;;-143.54;100.00;59916.91;5076344;28;20024;-85
2024/01/04 01:45:33;;;;;;;13.18;4.00;;;;;;;-143.54;100.00;59916.91;5071030;28;20819;-85
2024/01/04 01:47:59;;;;;;;15.70;4.72;;;;;;;-143.54;100.00;59916.91;5076294;28;20046;-85
2024/01/04 01:50:25;;;;;;;14.07;4.22;;;;;;;-143.54;100.00;59916.91;5077277;28;20384;-84
2024/01/04 01:52:51;;;;;;;17.67;4.32;;;;;;;-143.54;100.00;59916.91;5079187;28;20471;-84
2024/01/04 01:55:18;;;;;;;13.60;3.92;;;;;;;-143.54;100.00;59916.91;5080747;28;20184;-84
2024/01/04 01:57:43;;;;;;;11.25;3.65;;;;;;;-143.54;100.00;59916.91;5063978;28;20115;-84
2024/01/04 02:00:10;;;;;;;15.57;3.55;;;;;;;-143.54;100.00;59916.91;5081237;28;20115;-84
2024/01/04 02:02:36;;;;;;;17.25;3.85;;;;;;;-143.54;100.00;59916.91;5071081;28;20051;-84
2024/01/04 02:05:02;;;;;;;14.63;3.67;;;;;;;-143.54;100.00;59916.91;5067387;28;20422;-84
2024/01/04 02:07:28;;;;;;;8.98;3.80;;;;;;;-143.54;100.00;59916.91;5070694;28;20029;-84
2024/01/04 02:09:53;;;;;;;13.63;3.88;;;;;;;-143.54;100.00;59916.91;5068379;28;20040;-84
2024/01/04 02:12:19;;;;;;;15.15;3.70;;;;;;;-143.54;100.00;59916.91;5072445;28;20058;-85
2024/01/04 02:14:44;;;;;;;19.95;4.03;;;;;;;-143.54;100.00;59916.91;5069575;28;20495;-84
2024/01/04 02:17:10;;;;;;;14.10;3.97;;;;;;;-143.54;100.00;59916.91;5072166;28;20024;-85
2024/01/04 02:19:36;;;;;;;17.95;4.07;;;;;;;-143.54;100.00;59916.91;5074445;28;20109;-84
2024/01/04 02:22:02;;;;;;;11.95;4.47;;;;;;;-143.54;100.00;59916.91;5066739;28;20025;-84
2024/01/04 02:24:27;;;;;;;15.65;4.47;;;;;;;-143.54;100.00;59916.91;5074505;28;20054;-84
2024/01/04 02:26:53;;;;;;;18.23;4.32;;;;;;;-143.54;100.00;59916.91;5081179;28;20033;-85
2024/01/04 02:29:18;;;;;;;15.85;5.32;;;;;;;-143.54;100.00;59916.91;5074499;28;20024;-84
2024/01/04 02:31:47;;;;;;;17.20;5.03;;;;;;;-143.54;100.00;59916.91;5074955;28;20123;-84
2024/01/04 02:34:13;;;;;;;12.30;5.32;;;;;;;-143.54;100.00;59916.91;5069287;28;20048;-84
2024/01/04 02:36:38;;;;;;;15.40;5.63;;;;;;;-143.54;100.00;59916.91;5070665;28;20056;-85
2024/01/04 02:39:04;;;;;;;18.73;5.95;;;;;;;-143.54;100.00;59916.91;5071241;28;20127;-84
2024/01/04 02:41:29;;;;;;;17.00;6.00;;;;;;;-143.54;100.00;59916.91;5067076;28;20028;-84
2024/01/04 02:43:56;;;;;;;16.50;6.43;;;;;;;-143.54;100.00;59916.91;5075737;28;20417;-84
2024/01/04 02:46:21;;;;;;;15.23;6.70;;;;;;;-143.54;100.00;59916.91;5073712;28;20040;-84
2024/01/04 02:48:47;;;;;;;18.88;6.40;;;;;;;-143.54;100.00;59916.91;5071007;28;20400;-84
2024/01/04 02:51:12;;;;;;;17.75;4.65;;;;;;;-143.54;100.00;59916.91;5076372;28;20025;-84
2024/01/04 02:53:37;;;;;;;11.43;4.25;;;;;;;-143.54;100.00;59916.91;5077664;28;20089;-84
2024/01/04 02:56:04;;;;;;;10.70;4.72;;;;;;;-143.54;100.00;59916.91;5077965;28;20119;-85
2024/01/04 02:58:29;;;;;;;6.95;2.97;;;;;;;-143.54;100.00;59916.91;5074133;28;20021;-84
2024/01/04 03:00:55;;;;;;;5.25;2.72;;;;;;;-143.54;100.00;59916.91;5078296;28;20039;-84
2024/01/04 03:03:20;;;;;;;6.70;2.35;;;;;;;-143.54;100.00;59916.91;5072204;28;20020;-85
2024/01/04 03:05:45;;;;;;;9.82;2.42;;;;;;;-143.54;100.00;59916.91;5072204;28;20032;-84
2024/01/04 03:08:11;;;;;;;6.30;2.13;;;;;;;-143.54;100.00;59916.91;5070938;28;20480;-84
2024/01/04 03:10:36;;;;;;;7.68;2.50;;;;;;;-143.54;100.00;59916.91;5072084;28;20387;-84
2024/01/04 03:13:03;;;;;;;7.38;2.50;;;;;;;-143.54;100.00;59916.91;5075769;28;20415;-85
2024/01/04 03:15:28;;;;;;;4.80;2.40;;;;;;;-143.54;100.00;59916.91;5072827;28;20017;-85
2024/01/04 03:17:53;;;;;;;6.03;2.60;;;;;;;-143.54;100.00;59916.91;5074278;28;20444;-85
2024/01/04 03:20:19;;;;;;;10.20;2.35;;;;;;;-143.54;100.00;59916.91;5081355;28;20039;-84
2024/01/04 03:22:44;;;;;;;7.47;3.25;;;;;;;-143.54;100.00;59916.91;5076096;28;20021;-84
2024/01/04 03:25:10;;;;;;;6.43;3.20;;;;;;;-143.54;100.00;59916.91;5077055;28;20102;-85
2024/01/04 03:27:36;;;;;;;10.88;3.15;;;;;;;-143.54;100.00;59916.91;5076012;28;20579;-85
2024/01/04 03:30:01;;;;;;;13.60;3.35;;;;;;;-143.54;100.00;59916.91;5074797;28;20115;-84
2024/01/04 03:32:27;;;;;;;9.93;4.32;;;;;;;-143.54;100.00;59916.91;5073764;28;20125;-84
2024/01/04 03:34:52;;;;;;;11.15;4.32;;;;;;;-143.54;100.00;59916.91;5074333;28;20540;-84
2024/01/04 03:37:17;;;;;;;10.32;4.28;;;;;;;-143.54;100.00;59916.91;5073623;28;20110;-84
2024/01/04 03:39:43;;;;;;;14.95;4.88;;;;;;;-143.54;100.00;59916.91;5075149;28;20059;-84
2024/01/04 03:42:08;;;;;;;15.43;5.13;;;;;;;-143.54;100.00;59916.91;5074488;28;20032;-84
2024/01/04 03:44:33;;;;;;;13.60;5.32;;;;;;;-143.54;100.00;59916.91;5078382;28;20074;-84
2024/01/04 03:47:00;;;;;;;14.32;5.90;;;;;;;-143.54;100.00;59916.91;5076876;28;20691;-84
2024/01/04 03:49:25;;;;;;;19.30;6.50;;;;;;;-143.54;100.00;59916.91;5068946;28;20033;-84
2024/01/04 03:51:51;;;;;;;14.55;6.47;;;;;;;-143.54;100.00;59916.91;5072413;28;20035;-84
2024/01/04 03:54:16;;;;;;;15.13;6.40;;;;;;;-143.54;100.00;59916.91;5078318;28;20028;-84
2024/01/04 03:56:41;;;;;;;21.90;6.68;;;;;;;-143.54;100.00;59916.91;5069482;28;20032;-85
2024/01/04 03:59:07;;;;;;;17.52;6.88;;;;;;;-143.54;100.00;59916.91;5075975;28;20035;-85
2024/01/04 04:01:32;;;;;;;18.60;7.50;;;;;;;-143.54;100.00;59916.91;5079028;28;20028;-84
2024/01/04 04:03:57;;;;;;;18.77;8.07;;;;;;;-143.54;100.00;59916.91;5074796;28;20484;-84
2024/01/04 04:06:22;;;;;;;22.55;8.88;;;;;;;-143.54;100.00;59916.91;5078172;28;20039;-84
2024/01/04 04:08:48;;;;;;;26.35;8.75;;;;;;;-143.54;100.00;59916.91;5070038;28;20047;-84
2024/01/04 04:11:17;;;;;;;22.25;8.07;;;;;;;-143.54;100.00;59916.91;5076607;28;20029;-85
2024/01/04 04:13:43;;;;;;;22.88;9.32;;;;;;;-143.54;100.00;59916.91;5073274;28;20428;-84
2024/01/04 04:16:08;;;;;;;21.05;9.93;;;;;;;-143.54;100.00;59916.91;5076884;28;20478;-84
2024/01/04 04:18:34;;;;;;;25.02;10.23;;;;;;;-143.54;100.00;59916.91;5076663;28;20062;-84
2024/01/04 04:20:59;;;;;;;24.38;9.93;;;;;;;-143.54;100.00;59916.91;5073982;28;20278;-84
2024/01/04 04:23:24;;;;;;;26.15;9.75;;;;;;;-143.54;100.00;59916.91;5071181;28;20041;-84
2024/01/04 04:25:49;;;;;;;26.75;10.35;;;;;;;-143.54;100.00;59916.91;5070082;28;20029;-84
2024/01/04 04:28:15;;;;;;;26.23;11.10;;;;;;;-143.54;100.00;59916.91;5083156;28;20398;-84
2024/01/04 04:30:40;;;;;;;23.05;11.32;;;;;;;-143.54;100.00;59916.91;5072479;28;20032;-85
2024/01/04 04:33:05;;;;;;;30.80;12.13;;;;;;;-143.54;100.00;59916.91;5076377;28;20020;-85
2024/01/04 04:35:30;;;;;;;27.13;12.35;;;;;;;-143.54;100.00;59916.91;5074869;28;20035;-85
2024/01/04 04:37:56;;;;;;;30.85;12.88;;;;;;;-143.54;100.00;59916.91;5076349;28;20025;-86
2024/01/04 04:40:22;;;;;;;35.35;12.90;;;;;;;-143.54;100.00;59916.91;5070650;28;20116;-86
2024/01/04 04:42:47;;;;;;;25.50;11.30;;;;;;;-143.54;100.00;59916.91;5075442;28;20029;-86
2024/01/04 04:45:13;;;;;;;25.10;12.18;;;;;;;-143.54;100.00;59916.91;5071358;28;20028;-86
2024/01/04 04:47:38;;;;;;;24.45;11.68;;;;;;;-143.54;100.00;59916.91;5073539;28;20090;-85
2024/01/04 04:50:04;;;;;;;31.25;11.48;;;;;;;-143.54;100.00;59916.91;5074973;28;20082;-85
2024/01/04 04:52:30;;;;;;;27.90;10.90;;;;;;;-143.54;100.00;59916.91;5073498;28;20032;-85
2024/01/04 04:54:55;;;;;;;24.20;10.10;;;;;;;-143.54;100.00;59916.91;5073783;28;20016;-85
2024/01/04 04:57:21;;;;;;;27.27;10.23;;;;;;;-143.54;100.00;59916.91;5076169;28;20028;-84
2024/01/04 04:59:47;;;;;;;21.17;9.60;;;;;;;-143.54;100.00;59916.91;5074630;28;20024;-85
2024/01/04 05:02:12;;;;;;;27.67;9.90;;;;;;;-143.54;100.00;59916.91;5076650;28;20125;-84
2024/01/04 05:04:38;;;;;;;24.92;10.45;;;;;;;-143.54;100.00;59916.91;5070982;28;20064;-85
2024/01/04 05:07:03;;;;;;;25.05;11.02;;;;;;;-143.54;100.00;59916.91;5076203;28;20073;-85
2024/01/04 05:09:29;;;;;;;29.80;13.25;;;;;;;-143.54;100.00;59916.91;5072868;28;20731;-84
2024/01/04 05:11:54;;;;;;;30.90;14.35;;;;;;;-143.54;100.00;59916.91;5077613;28;20071;-84
2024/01/04 05:14:19;;;;;;;36.03;15.05;;;;;;;-143.54;100.00;59916.91;5075919;28;20036;-84
2024/01/04 05:16:44;;;;;;;33.30;14.95;;;;;;;-143.54;100.00;59916.91;5068371;28;20036;-84
2024/01/04 05:19:13;;;;;;;34.88;15.63;;;;;;;-143.54;100.00;59916.91;5077195;28;20115;-84
2024/01/04 05:21:39;;;;;;;32.70;15.23;;;;;;;-143.54;100.00;59916.91;5070890;28;20024;-85
2024/01/04 05:24:05;;;;;;;28.70;14.40;;;;;;;-143.54;100.00;59916.91;5076071;28;20032;-84
2024/01/04 05:26:31;;;;;;;27.92;12.00;;;;;;;-143.54;100.00;59916.91;5080998;28;20040;-84
2024/01/04 05:28:57;;;;;;;22.63;10.57;;;;;;;-143.54;100.00;59916.91;5074294;28;20068;-84
2024/01/04 05:31:22;;;;;;;21.08;9.60;;;;;;;-143.54;100.00;59916.91;5079229;28;20545;-84
2024/01/04 05:33:47;;;;;;;17.20;8.32;;;;;;;-143.54;100.00;59916.91;5071621;28;20154;-84
2024/01/04 05:36:13;;;;;;;14.73;7.15;;;;;;;-143.54;100.00;59916.91;5072358;28;20082;-84
2024/01/04 05:38:38;;;;;;;15.25;6.75;;;;;;;-143.54;100.00;59916.91;5078511;28;20396;-84
2024/01/04 05:41:06;;;;;;;12.65;6.32;;;;;;;-143.54;100.00;59916.91;5071399;28;20468;-84
2024/01/04 05:43:33;;;;;;;14.05;5.47;;;;;;;-143.54;100.00;59916.91;5071036;28;20025;-85
2024/01/04 05:46:02;;;;;;;12.43;4.97;;;;;;;-143.54;100.00;59916.91;5075085;28;20103;-86
2024/01/04 05:48:28;;;;;;;10.73;4.75;;;;;;;-143.54;100.00;59916.91;5073917;28;20082;-85
2024/01/04 05:50:53;;;;;;;12.68;4.78;;;;;;;-143.54;100.00;59916.91;5072661;28;20021;-84
2024/01/04 05:53:18;;;;;;;12.05;4.50;;;;;;;-143.54;100.00;59916.91;5072253;28;20088;-84
2024/01/04 05:55:44;;;;;;;9.55;4.20;;;;;;;-143.54;100.00;59916.91;5069334;28;20115;-83
2024/01/04 05:58:09;;;;;;;12.15;4.10;;;;;;;-143.54;100.00;59916.91;5072885;28;20504;-84
2024/01/04 06:00:34;;;;;;;10.18;4.25;;;;;;;-143.54;100.00;59916.91;5072934;28;20063;-84
2024/01/04 06:02:59;;;;;;;10.32;4.82;;;;;;;-143.54;100.00;59916.91;5074061;28;20025;-84
2024/01/04 06:05:26;;;;;;;13.27;4.97;;;;;;;-143.54;100.00;59916.91;5071571;28;20495;-84
2024/01/04 06:07:52;;;;;;;11.15;4.50;;;;;;;-143.54;100.00;59916.91;5073921;28;20063;-84
2024/01/04 06:10:18;;;;;;;10.82;5.10;;;;;;;-143.54;100.00;59916.91;5077703;28;20072;-84
2024/01/04 06:12:43;;;;;;;13.23;5.70;;;;;;;-143.54;100.00;59916.91;5081577;28;20490;-84
2024/01/04 06:15:09;;;;;;;14.25;5.78;;;;;;;-143.54;100.00;59916.91;5072403;28;20025;-84
2024/01/04 06:17:35;;;;;;;12.82;5.88;;;;;;;-143.54;100.00;59916.91;5072947;28;20032;-84
2024/01/04 06:20:00;;;;;;;12.13;5.95;;;;;;;-143.54;100.00;59916.91;5071969;28;20418;-84
2024/01/04 06:22:25;;;;;;;21.95;7.05;;;;;;;-143.54;100.00;59916.91;5072702;28;20417;-85
2024/01/04 06:24:50;;;;;;;20.45;7.05;;;;;;;-143.54;100.00;59916.91;5076303;28;20032;-87
2024/01/04 06:27:16;;;;;;;17.75;8.10;;;;;;;-143.54;100.00;59916.91;5074077;28;20082;-88
2024/01/04 06:29:43;;;;;;;16.83;7.97;;;;;;;-143.54;100.00;59916.91;5075222;28;20038;-86
2024/01/04 06:32:09;;;;;;;18.60;7.68;;;;;;;-143.54;100.00;59916.91;5073587;28;20017;-85
2024/01/04 06:34:34;;;;;;;19.05;8.25;;;;;;;-143.54;100.00;59916.91;5071871;28;20491;-86
2024/01/04 06:36:59;;;;;;;15.90;8.55;;;;;;;-143.54;100.00;59916.91;5072392;28;20043;-85
2024/01/04 06:39:25;;;;;;;16.95;8.32;;;;;;;-143.54;100.00;59916.91;5081398;28;20029;-85
2024/01/04 06:41:50;;;;;;;19.13;8.90;;;;;;;-143.54;100.00;59916.91;5070165;28;20021;-85
2024/01/04 06:44:15;;;;;;;18.30;8.75;;;;;;;-143.54;100.00;59916.91;5071126;28;20024;-85
2024/01/04 06:46:41;;;;;;;16.02;8.32;;;;;;;-143.54;100.00;59916.91;5072114;28;20536;-84
2024/01/04 06:49:07;;;;;;;21.42;8.77;;;;;;;-143.54;100.00;59916.91;5077474;28;20047;-85
2024/01/04 06:51:32;;;;;;;21.75;8.10;;;;;;;-143.54;100.00;59916.91;5071181;28;20032;-85
2024/01/04 06:53:58;;;;;;;17.45;7.95;;;;;;;-143.54;100.00;59916.91;5072779;28;20082;-85
2024/01/04 06:56:23;;;;;;;18.27;7.82;;;;;;;-143.54;100.00;59916.91;5071221;28;20040;-85
2024/01/04 06:58:48;;;;;;;20.65;8.02;;;;;;;-143.54;100.00;59916.91;5075237;28;20038;-84
2024/01/04 07:01:14;;;;;;;15.00;7.53;;;;;;;-143.54;100.00;59916.91;5075307;28;20029;-84
2024/01/04 07:03:39;;;;;;;13.82;6.30;;;;;;;-143.54;100.00;59916.91;5073532;28;20024;-84
2024/01/04 07:06:05;;;;;;;14.98;6.57;;;;;;;-143.54;100.00;59916.91;5072801;28;20029;-84
2024/01/04 07:08:31;;;;;;;18.58;6.85;;;;;;;-143.54;100.00;59916.91;5065920;28;20044;-84
2024/01/04 07:10:56;;;;;;;16.77;7.25;;;;;;;-143.54;100.00;59916.91;5082575;28;20032;-85
2024/01/04 07:13:21;;;;;;;14.13;6.97;;;;;;;-143.54;100.00;59916.91;5074066;28;20071;-85
2024/01/04 07:15:48;;;;;;;18.27;8.27;;;;;;;-143.54;100.00;59916.91;5081360;28;20028;-84
2024/01/04 07:18:14;;;;;;;18.55;7.13;;;;;;;-143.54;100.00;59916.91;5075804;28;20024;-84
2024/01/04 07:20:41;;;;;;;22.50;7.88;;;;;;;-143.54;100.00;59916.91;5063915;28;20051;-84
2024/01/04 07:23:06;;;;;;;26.35;7.80;;;;;;;-143.54;100.00;59916.91;5073354;28;20070;-85
2024/01/04 07:25:34;;;;;;;20.02;7.65;;;;;;;-143.54;100.00;59916.91;5066426;28;20463;-84
2024/01/04 07:27:59;;;;;;;21.65;8.38;;;;;;;-143.54;100.00;59916.91;5056387;28;20060;-85
2024/01/04 07:30:25;;;;;;;17.55;7.95;;;;;;;-143.54;100.00;59916.91;5061677;28;20017;-85
2024/01/04 07:32:50;;;;;;;23.27;9.00;;;;;;;-143.54;100.00;59916.91;5060698;28;20094;-85
2024/01/04 07:35:16;;;;;;;24.30;10.57;;;;;;;-143.54;100.00;59916.91;5058485;28;20461;-84
2024/01/04 07:37:41;;;;;;;23.00;10.48;;;;;;;-143.54;100.00;59916.91;5056592;28;20036;-84
2024/01/04 07:40:07;;;;;;;26.60;10.30;;;;;;;-143.54;100.00;59916.91;5064668;28;20016;-84
2024/01/04 07:42:33;;;;;;;23.85;11.00;;;;;;;-143.54;100.00;59916.91;5061472;28;20040;-84
2024/01/04 07:45:01;;;;;;;27.67;11.32;;;;;;;-143.54;100.00;59916.91;5066800;28;20029;-85
2024/01/04 07:47:26;;;;;;;31.15;11.88;;;;;;;-143.54;100.00;59916.91;5069384;28;20035;-85
2024/01/04 07:49:52;;;;;;;26.02;11.43;;;;;;;-143.54;100.00;59916.91;5067407;28;20024;-84
2024/01/04 07:52:17;;;;;;;25.77;11.35;;;;;;;-143.54;100.00;59916.91;5070103;28;20029;-85
2024/01/04 07:54:42;;;;;;;31.27;12.05;;;;;;;-143.54;100.00;59916.91;5069882;28;20032;-84
2024/01/04 07:57:09;;;;;;;34.33;12.10;;;;;;;-143.54;100.00;59916.91;5068541;28;20086;-84
2024/01/04 07:59:34;;;;;;;27.38;10.93;;;;;;;-143.54;100.00;59916.91;5068700;28;20450;-81
2024/01/04 08:02:00;;;;;;;30.40;11.27;;;;;;;-143.54;100.00;59916.91;5069652;28;20124;-81
2024/01/04 08:04:25;;;;;;;30.90;13.13;;;;;;;-143.54;100.00;59916.91;5066270;28;20040;-82
2024/01/04 08:06:50;;;;;;;29.00;12.57;;;;;;;-143.54;100.00;59916.91;5073907;28;20472;-82
2024/01/04 08:09:17;;;;;;;31.63;10.65;;;;;;;-143.54;100.00;59916.91;5073176;28;20025;-82
2024/01/04 08:11:43;;;;;;;23.30;10.27;;;;;;;-143.54;100.00;59916.91;5073953;28;20472;-82
2024/01/04 08:14:09;;;;;;;24.92;9.98;;;;;;;-143.54;100.00;59916.91;5073668;28;20040;-82
2024/01/04 08:16:34;;;;;;;19.92;8.90;;;;;;;-143.54;100.00;59916.91;5072268;28;20021;-82
2024/01/04 08:19:00;;;;;;;25.45;9.23;;;;;;;-143.54;100.00;59916.91;5072007;28;20059;-82
2024/01/04 08:21:25;;;;;;;24.13;8.20;;;;;;;-143.54;100.00;59916.91;5073506;28;20028;-81
2024/01/04 08:23:53;;;;;;;21.33;7.80;;;;;;;-143.54;100.00;59916.91;5072884;28;20021;-81
2024/01/04 08:26:19;;;;;;;17.27;7.47;;;;;;;-143.54;100.00;59916.91;5073292;28;20032;-83
2024/01/04 08:28:44;;;;;;;22.85;7.90;;;;;;;-143.54;100.00;59916.91;5073894;28;20048;-82
2024/01/04 08:31:10;;;;;;;16.60;6.70;;;;;;;-143.54;100.00;59916.91;5073337;28;20029;-80
2024/01/04 08:33:36;;;;;;;21.73;6.15;;;;;;;-143.54;100.00;59916.91;5076216;28;20033;-81
2024/01/04 08:36:01;;;;;;;16.17;6.75;;;;;;;-143.54;100.00;59916.91;5075248;28;20371;-81
2024/01/04 08:38:27;;;;;;;16.13;6.78;;;;;;;-143.54;100.00;59916.91;5072375;28;20099;-81
2024/01/04 08:40:52;;;;;;;12.27;6.68;;;;;;;-143.54;100.00;59916.91;5073638;28;20480;-82
2024/01/04 08:43:17;;;;;;;12.75;6.05;;;;;;;-143.54;100.00;59916.91;5074201;28;20110;-81
2024/01/04 08:45:43;;;;;;;12.52;5.60;;;;;;;-143.54;100.00;59916.91;5075173;28;20028;-81
2024/01/04 08:48:08;;;;;;;10.02;4.80;;;;;;;-143.54;100.00;59916.91;5073391;28;20040;-81
2024/01/04 08:50:33;;;;;;;9.80;4.70;;;;;;;-143.54;100.00;59916.91;5078604;28;20099;-81
2024/01/04 08:52:59;;;;;;;11.07;5.38;;;;;;;-143.54;100.00;59916.91;5073266;28;20488;-81
2024/01/04 08:55:24;;;;;;;12.20;4.78;;;;;;;-143.54;100.00;59916.91;5078748;28;20372;-81
2024/01/04 08:57:49;;;;;;;11.20;5.32;;;;;;;-143.54;100.00;59916.91;5071826;28;20039;-81
2024/01/04 09:00:15;;;;;;;12.90;5.05;;;;;;;-143.54;100.00;59916.91;5072958;28;20469;-81
2024/01/04 09:02:42;;;;;;;9.60;4.88;;;;;;;-143.54;100.00;59916.91;5073807;28;20483;-81
2024/01/04 09:05:08;;;;;;;12.10;4.50;;;;;;;-143.54;100.00;59916.91;5073660;28;20054;-82
2024/01/04 09:07:34;;;;;;;12.02;3.80;;;;;;;-143.54;100.00;59916.91;5079014;28;20078;-82
2024/01/04 09:09:59;;;;;;;6.80;3.30;;;;;;;-143.54;100.00;59916.91;5073271;28;20036;-81
2024/01/04 09:12:26;;;;;;;10.57;2.92;;;;;;;-143.54;100.00;59916.91;5073662;28;20021;-82
2024/01/04 09:14:51;;;;;;;6.15;3.17;;;;;;;-143.54;100.00;59916.91;5078362;28;20107;-81
2024/01/04 09:17:17;;;;;;;4.55;2.25;;;;;;;-143.54;100.00;59916.91;5073607;28;20044;-81
2024/01/04 09:19:42;;;;;;;5.18;2.33;;;;;;;-143.54;100.00;59916.91;5074017;28;20483;-81
2024/01/04 09:22:08;;;;;;;6.05;2.13;;;;;;;-143.54;100.00;59916.91;5072766;28;20051;-81
2024/01/04 09:24:34;;;;;;;4.90;2.42;;;;;;;-143.54;100.00;59916.91;5072645;28;20029;-81
2024/01/04 09:26:59;;;;;;;5.00;2.25;;;;;;;-143.54;100.00;59916.91;5075761;28;20101;-81
2024/01/04 09:29:24;;;;;;;4.07;2.45;;;;;;;-143.54;100.00;59916.91;5073703;28;20031;-81
2024/01/04 09:31:50;;;;;;;5.63;2.67;;;;;;;-143.54;100.00;59916.91;5071875;28;20035;-81
2024/01/04 09:34:15;;;;;;;6.85;2.60;;;;;;;-143.54;100.00;59916.91;5078056;28;20021;-81
2024/01/04 09:36:41;;;;;;;7.90;2.72;;;;;;;-143.54;100.00;59916.91;5070960;28;20032;-81
2024/01/04 09:39:07;;;;;;;6.25;2.90;;;;;;;-143.54;100.00;59916.91;5076036;28;20440;-81
2024/01/04 09:41:35;;;;;;;4.55;2.88;;;;;;;-143.54;100.00;59916.91;5067447;28;20043;-81
2024/01/04 09:44:03;;;;;;;7.25;2.78;;;;;;;-143.54;100.00;59916.91;5064660;28;20029;-81
2024/01/04 09:46:35;;;;;;;7.53;3.10;;;;;;;-143.54;100.00;59916.91;5057145;28;20032;-81
2024/01/04 09:49:01;;;;;;;4.65;3.15;;;;;;;-143.54;100.00;59916.91;5061283;28;20017;-81
2024/01/04 09:51:33;;;;;;;6.93;3.13;;;;;;;-143.54;100.00;59916.91;5070778;28;20081;-81
2024/01/04 09:54:00;;;;;;;6.28;3.28;;;;;;;-143.54;100.00;59916.91;5063595;28;20028;-81
2024/01/04 09:56:26;;;;;;;7.78;3.28;;;;;;;-143.54;100.00;59916.91;5055978;28;20025;-81
2024/01/04 09:58:53;;;;;;;7.80;3.10;;;;;;;-143.54;100.00;59916.91;5059274;28;20025;-82
2024/01/04 10:01:22;;;;;;;10.55;3.97;;;;;;;-143.54;100.00;59916.91;5062078;28;20048;-81
2024/01/04 10:03:48;;;;;;;9.25;4.55;;;;;;;-143.54;100.00;59916.91;5068560;28;20031;-81
2024/01/04 10:06:21;;;;;;;6.82;4.28;;;;;;;-143.54;100.00;59916.91;5070243;28;20025;-81
2024/01/04 10:08:56;;;;;;;7.75;4.22;;;;;;;-143.54;100.00;59916.91;5071013;28;20028;-81
2024/01/04 10:11:28;;;;;;;8.18;4.13;;;;;;;-143.54;100.00;59916.91;5071253;28;20020;-81
2024/01/04 10:13:53;;;;;;;7.97;3.70;;;;;;;-143.54;100.00;59916.91;5071021;28;20025;-81
2024/01/04 10:16:19;;;;;;;5.53;3.28;;;;;;;-143.54;100.00;59916.91;5070092;28;20038;-81
2024/01/04 10:18:44;;;;;;;6.75;3.13;;;;;;;-143.54;100.00;59916.91;5071262;28;20050;-81
2024/01/04 10:21:10;;;;;;;7.22;2.88;;;;;;;-143.54;100.00;59916.91;5071454;28;20032;-81
2024/01/04 10:23:36;;;;;;;7.68;3.00;;;;;;;-143.54;100.00;59916.91;5066214;28;20029;-82
2024/01/04 10:26:22;;;;;;;6.57;2.67;;;;;;;-143.54;100.00;59916.91;5070121;28;20021;-81
2024/01/04 10:28:54;;;;;;;3.85;2.25;;;;;;;-143.54;100.00;59916.91;5068829;28;20473;-81
2024/01/04 10:31:19;;;;;;;5.90;2.35;;;;;;;-143.54;100.00;59916.91;5073299;28;20025;-82
2024/01/04 10:33:45;;;;;;;4.93;2.45;;;;;;;-143.54;100.00;59916.91;5072717;28;20082;-82
2024/01/04 10:36:11;;;;;;;3.08;2.33;;;;;;;-143.54;100.00;59916.91;5072525;28;20082;-82
2024/01/04 10:38:37;;;;;;;3.67;2.42;;;;;;;-143.54;100.00;59916.91;5078433;28;20024;-81
2024/01/04 10:41:04;;;;;;;4.53;2.55;;;;;;;-143.54;100.00;59916.91;5071049;28;20032;-81
2024/01/04 10:43:33;;;;;;;5.60;2.58;;;;;;;-143.54;100.00;59916.91;5074587;28;20021;-81
2024/01/04 10:46:08;;;;;;;7.20;2.70;;;;;;;-143.54;100.00;59916.91;5068998;28;20028;-81
2024/01/04 10:48:35;;;;;;;5.10;2.45;;;;;;;-143.54;100.00;59916.91;5070622;28;20032;-82
2024/01/04 10:51:06;;;;;;;5.53;2.40;;;;;;;-143.54;100.00;59916.91;5077203;28;20090;-81
2024/01/04 10:53:38;;;;;;;5.22;2.50;;;;;;;-143.54;100.00;59916.91;5073755;28;20033;-81
2024/01/04 10:56:04;;;;;;;5.25;2.55;;;;;;;-143.54;100.00;59916.91;5071077;28;20021;-81